Time;durP1;ratioP1;P1;durP2;ratioP2;P2;SDS_P1;SDS_P2;PMS_P1;PMS_P2;Temp;Humidity;BMP_temperature;BMP_pressure;BME280_temperature;BME280_humidity;BME280_pressure;Samples;Min_cycle;Max_cycle;Signal;HPM_P1;HPM_P2
2022/03/21 00:01:36;;;;;;;62.88;27.48;;;2.40;99.90;;;;;;5024608;28;20057;-59
2022/03/21 00:04:06;;;;;;;67.40;28.50;;;2.30;99.90;;;;;;5025059;28;20125;-59
2022/03/21 00:06:37;;;;;;;77.35;29.10;;;2.30;99.90;;;;;;5023479;28;20041;-58
2022/03/21 00:09:05;;;;;;;64.40;28.85;;;2.30;99.90;;;;;;4999580;28;20060;-59
2022/03/21 00:11:39;;;;;;;66.00;28.45;;;2.20;99.90;;;;;;5006735;28;20046;-59
2022/03/21 00:14:11;;;;;;;60.50;29.55;;;2.30;99.90;;;;;;5007229;28;20053;-60
2022/03/21 00:16:40;;;;;;;64.25;29.17;;;2.20;99.90;;;;;;5007714;28;20460;-59
2022/03/21 00:19:17;;;;;;;57.58;27.58;;;2.20;99.90;;;;;;5006714;28;20053;-58
2022/03/21 00:21:45;;;;;;;70.97;28.40;;;2.20;99.90;;;;;;5005612;28;20529;-59
2022/03/21 00:24:12;;;;;;;64.45;27.90;;;2.20;99.90;;;;;;5024260;28;20185;-58
2022/03/21 00:26:41;;;;;;;66.53;28.02;;;2.20;99.90;;;;;;5024162;28;20374;-58
2022/03/21 00:29:24;;;;;;;65.30;26.33;;;2.20;99.90;;;;;;5007221;28;20045;-59
2022/03/21 00:31:54;;;;;;;61.77;26.90;;;2.00;99.90;;;;;;5021776;28;20041;-59
2022/03/21 00:34:22;;;;;;;68.60;28.95;;;2.10;99.90;;;;;;5009183;28;20037;-59
2022/03/21 00:36:50;;;;;;;64.93;28.38;;;2.10;99.90;;;;;;5021926;28;20057;-59
2022/03/21 00:39:19;;;;;;;67.82;30.10;;;2.00;99.90;;;;;;5026231;28;20038;-59
2022/03/21 00:41:47;;;;;;;65.90;29.45;;;2.00;99.90;;;;;;5014996;28;20517;-60
2022/03/21 00:44:15;;;;;;;62.92;30.08;;;2.00;99.90;;;;;;5031720;28;20050;-59
2022/03/21 00:46:48;;;;;;;68.55;29.77;;;2.00;99.90;;;;;;5031234;28;20521;-59
2022/03/21 00:49:15;;;;;;;70.93;31.13;;;2.00;99.90;;;;;;5031189;28;20049;-59
2022/03/21 00:51:43;;;;;;;67.38;28.77;;;1.90;99.90;;;;;;5031206;28;20037;-59
2022/03/21 00:54:12;;;;;;;64.53;30.05;;;1.90;99.90;;;;;;5030105;28;20073;-60
2022/03/21 00:56:40;;;;;;;64.75;29.10;;;1.90;99.90;;;;;;5031534;28;20501;-59
2022/03/21 00:59:11;;;;;;;61.15;29.73;;;1.80;99.90;;;;;;5031016;28;20121;-59
2022/03/21 01:01:41;;;;;;;61.42;26.27;;;1.80;99.90;;;;;;5029523;28;20389;-59
2022/03/21 01:04:12;;;;;;;57.70;26.83;;;1.80;99.90;;;;;;5027659;28;20424;-59
2022/03/21 01:06:40;;;;;;;67.07;28.95;;;1.70;99.90;;;;;;5028386;28;20052;-60
2022/03/21 01:09:11;;;;;;;65.68;28.38;;;1.60;99.90;;;;;;5025497;28;20037;-59
2022/03/21 01:11:38;;;;;;;71.85;28.88;;;1.60;99.90;;;;;;5031471;28;20056;-59
2022/03/21 01:14:06;;;;;;;70.82;29.67;;;1.50;99.90;;;;;;5030103;28;20042;-59
2022/03/21 01:16:34;;;;;;;72.00;29.65;;;1.40;99.90;;;;;;5029884;28;20064;-59
2022/03/21 01:19:02;;;;;;;74.28;29.00;;;1.40;99.90;;;;;;5013312;28;20057;-59
2022/03/21 01:21:30;;;;;;;67.65;29.90;;;1.40;99.90;;;;;;5030541;28;20104;-61
2022/03/21 01:23:59;;;;;;;72.38;30.13;;;1.30;99.90;;;;;;5022030;28;20065;-59
2022/03/21 01:26:27;;;;;;;72.55;30.75;;;1.30;99.90;;;;;;5030434;28;20072;-59
2022/03/21 01:28:57;;;;;;;58.13;28.15;;;1.20;99.90;;;;;;5030017;28;20049;-59
2022/03/21 01:31:24;;;;;;;64.05;26.38;;;1.30;99.90;;;;;;5030766;28;20393;-58
2022/03/21 01:33:53;;;;;;;71.93;28.27;;;1.30;99.90;;;;;;5030553;28;20042;-59
2022/03/21 01:36:22;;;;;;;67.40;28.63;;;1.20;99.90;;;;;;5030468;28;20573;-60
2022/03/21 01:38:50;;;;;;;69.45;29.02;;;1.20;99.90;;;;;;5029441;28;21575;-60
2022/03/21 01:41:17;;;;;;;77.00;29.63;;;1.20;99.90;;;;;;5006156;28;20048;-60
2022/03/21 01:44:02;;;;;;;71.50;28.48;;;1.10;99.90;;;;;;5021638;28;20048;-60
2022/03/21 01:46:30;;;;;;;70.88;29.35;;;1.10;99.90;;;;;;5030301;28;20508;-59
2022/03/21 01:48:59;;;;;;;64.95;29.20;;;1.00;99.90;;;;;;5021985;28;20046;-59
2022/03/21 01:51:28;;;;;;;68.88;28.63;;;1.00;99.90;;;;;;5028907;28;20401;-58
2022/03/21 01:56:46;;;;;;;62.65;27.92;;;1.00;99.90;;;;;;5030210;28;20305;-59
2022/03/21 01:59:15;;;;;;;70.68;29.10;;;1.00;99.90;;;;;;5029879;28;20484;-60
2022/03/21 02:01:43;;;;;;;64.05;27.80;;;0.90;99.90;;;;;;5029738;28;20052;-60
2022/03/21 02:04:12;;;;;;;67.40;29.83;;;0.90;99.90;;;;;;5029260;28;20378;-59
2022/03/21 02:06:44;;;;;;;62.65;29.05;;;0.90;99.90;;;;;;5012410;28;20057;-59
2022/03/21 02:09:13;;;;;;;62.42;27.05;;;0.90;99.90;;;;;;5010355;28;20041;-60
2022/03/21 02:11:41;;;;;;;52.50;25.70;;;0.90;99.90;;;;;;5029694;28;20060;-59
2022/03/21 02:14:10;;;;;;;62.00;27.73;;;0.80;99.90;;;;;;5029641;28;20033;-59
2022/03/21 02:16:39;;;;;;;66.47;29.23;;;0.80;99.90;;;;;;5029525;28;20056;-59
2022/03/21 02:19:16;;;;;;;72.25;28.75;;;0.80;99.90;;;;;;5029460;28;20046;-60
2022/03/21 02:21:57;;;;;;;65.15;28.23;;;0.80;99.90;;;;;;5029315;28;20408;-59
2022/03/21 02:24:39;;;;;;;64.97;28.15;;;0.80;99.90;;;;;;5026239;28;20107;-58
2022/03/21 02:27:10;;;;;;;77.50;30.92;;;0.70;99.90;;;;;;5016431;28;20050;-59
2022/03/21 02:29:40;;;;;;;80.78;30.48;;;0.70;99.90;;;;;;5028767;28;20551;-59
2022/03/21 02:32:08;;;;;;;70.38;29.90;;;0.80;99.90;;;;;;5024026;28;20041;-59
2022/03/21 02:34:38;;;;;;;82.60;32.28;;;0.70;99.90;;;;;;5032452;28;20474;-59
2022/03/21 02:37:12;;;;;;;75.95;30.83;;;0.70;99.90;;;;;;5019228;28;20049;-59
2022/03/21 02:39:42;;;;;;;74.63;32.38;;;0.80;99.90;;;;;;5031872;28;20037;-59
2022/03/21 02:42:11;;;;;;;83.20;33.30;;;0.80;99.90;;;;;;5032689;28;20045;-59
2022/03/21 02:44:44;;;;;;;72.07;31.73;;;0.80;99.90;;;;;;5031236;28;20041;-59
2022/03/21 02:47:12;;;;;;;76.03;33.17;;;0.80;99.90;;;;;;5030601;28;20060;-60
2022/03/21 02:49:40;;;;;;;77.50;29.95;;;0.80;99.90;;;;;;5032334;28;20041;-59
2022/03/21 02:52:11;;;;;;;83.25;32.80;;;0.80;99.90;;;;;;5032393;28;20045;-59
2022/03/21 02:54:38;;;;;;;77.13;32.22;;;0.80;99.90;;;;;;5032344;28;20061;-58
2022/03/21 02:57:06;;;;;;;73.05;29.35;;;0.80;99.90;;;;;;5030354;28;20037;-59
2022/03/21 02:59:34;;;;;;;70.75;29.25;;;0.80;99.90;;;;;;5031876;28;20404;-58
2022/03/21 03:02:02;;;;;;;71.35;29.70;;;0.80;99.90;;;;;;5031818;28;20057;-59
2022/03/21 03:04:30;;;;;;;63.05;30.42;;;0.70;99.90;;;;;;5031429;28;20045;-58
2022/03/21 03:06:57;;;;;;;73.22;31.73;;;0.70;99.90;;;;;;5031616;28;20053;-59
2022/03/21 03:09:25;;;;;;;65.18;29.85;;;0.70;99.90;;;;;;5031818;28;20045;-60
2022/03/21 03:11:53;;;;;;;61.97;27.90;;;0.60;99.90;;;;;;5014631;28;20041;-59
2022/03/21 03:14:21;;;;;;;60.20;28.98;;;0.60;99.90;;;;;;5032037;28;20057;-58
2022/03/21 03:16:49;;;;;;;68.68;30.13;;;0.60;99.90;;;;;;5032009;28;20057;-59
2022/03/21 03:19:16;;;;;;;75.40;28.92;;;0.50;99.90;;;;;;5031502;28;20049;-58
2022/03/21 03:21:46;;;;;;;92.28;31.05;;;0.50;99.90;;;;;;5030066;28;20057;-59
2022/03/21 03:24:18;;;;;;;65.18;29.88;;;0.40;99.90;;;;;;5031860;28;20080;-59
2022/03/21 03:26:45;;;;;;;80.93;30.65;;;0.40;99.90;;;;;;5030375;28;20057;-59
2022/03/21 03:29:19;;;;;;;71.22;31.30;;;0.40;99.90;;;;;;5031498;28;20508;-59
2022/03/21 03:31:47;;;;;;;74.50;31.38;;;0.40;99.90;;;;;;5031914;28;20072;-59
2022/03/21 03:34:15;;;;;;;64.57;29.85;;;0.30;99.90;;;;;;5026519;28;20041;-59
2022/03/21 03:36:43;;;;;;;72.78;31.00;;;0.30;99.90;;;;;;5030149;28;20049;-59
2022/03/21 03:39:11;;;;;;;70.20;31.40;;;0.30;99.90;;;;;;5031580;28;20041;-59
2022/03/21 03:41:38;;;;;;;74.97;31.02;;;0.30;99.90;;;;;;5031092;28;20400;-58
2022/03/21 03:44:07;;;;;;;81.68;30.88;;;0.30;99.90;;;;;;5032100;28;20049;-60
2022/03/21 03:46:34;;;;;;;71.57;30.55;;;0.30;99.90;;;;;;5031510;28;20053;-60
2022/03/21 03:49:02;;;;;;;72.80;31.52;;;0.30;99.90;;;;;;5029331;28;20056;-60
2022/03/21 03:51:30;;;;;;;66.97;29.60;;;0.20;99.90;;;;;;5031483;28;20062;-60
2022/03/21 03:53:58;;;;;;;75.75;31.85;;;0.20;99.90;;;;;;5031534;28;20393;-59
2022/03/21 03:56:26;;;;;;;76.25;30.45;;;0.20;99.90;;;;;;5031255;28;20049;-59
2022/03/21 03:58:53;;;;;;;76.70;32.10;;;0.10;99.90;;;;;;5031368;28;20500;-58
2022/03/21 04:01:21;;;;;;;75.85;30.25;;;0.20;99.90;;;;;;5030734;28;20048;-58
2022/03/21 04:03:49;;;;;;;78.50;30.73;;;0.10;99.90;;;;;;5030949;28;20485;-58
2022/03/21 04:06:22;;;;;;;78.32;30.90;;;0.10;99.90;;;;;;5030102;28;20033;-58
2022/03/21 04:08:51;;;;;;;74.47;30.83;;;0.10;99.90;;;;;;5030355;28;20060;-61
2022/03/21 04:11:20;;;;;;;70.45;29.42;;;0.00;99.90;;;;;;5030962;28;20489;-58
2022/03/21 04:13:48;;;;;;;78.70;30.70;;;0.00;99.90;;;;;;5014487;28;20385;-59
2022/03/21 04:16:16;;;;;;;75.57;31.55;;;0.10;99.90;;;;;;5034889;28;20037;-59
2022/03/21 04:18:44;;;;;;;80.68;30.02;;;0.00;99.90;;;;;;5001361;28;20421;-59
2022/03/21 04:21:26;;;;;;;73.78;30.92;;;0.00;99.90;;;;;;5035200;28;20437;-59
2022/03/21 04:23:56;;;;;;;74.55;31.60;;;-0.10;99.90;;;;;;5034887;28;20045;-58
2022/03/21 04:26:25;;;;;;;72.85;31.77;;;-0.10;99.90;;;;;;5034400;28;20037;-59
2022/03/21 04:28:53;;;;;;;78.70;31.65;;;-0.10;99.90;;;;;;5035215;28;20053;-58
2022/03/21 04:31:20;;;;;;;79.03;31.40;;;-0.10;99.90;;;;;;5034011;28;20046;-58
2022/03/21 04:33:48;;;;;;;75.78;31.77;;;-0.20;99.90;;;;;;5034830;28;20046;-58
2022/03/21 04:36:19;;;;;;;69.45;29.75;;;0.10;99.90;;;;;;5034506;28;20041;-59
2022/03/21 04:38:46;;;;;;;75.68;32.60;;;-0.20;99.90;;;;;;5034684;28;20056;-59
2022/03/21 04:41:15;;;;;;;67.38;30.60;;;-0.20;99.90;;;;;;5034608;28;20034;-59
2022/03/21 04:43:43;;;;;;;82.13;34.03;;;-0.20;99.90;;;;;;5035110;28;20045;-58
2022/03/21 04:46:10;;;;;;;76.93;30.52;;;-0.20;99.90;;;;;;5017256;28;20377;-58
2022/03/21 04:48:38;;;;;;;73.65;31.27;;;-0.20;99.90;;;;;;5034706;28;20050;-58
2022/03/21 04:51:06;;;;;;;77.55;32.15;;;-0.30;99.90;;;;;;5034592;28;20075;-58
2022/03/21 04:53:33;;;;;;;69.90;31.75;;;-0.30;99.90;;;;;;5034776;28;20526;-58
2022/03/21 04:56:01;;;;;;;70.07;31.80;;;-0.30;99.90;;;;;;5034144;28;20049;-58
2022/03/21 04:58:29;;;;;;;70.05;30.48;;;-0.30;99.90;;;;;;5034233;28;20053;-57
2022/03/21 05:00:57;;;;;;;74.13;30.42;;;-0.30;99.90;;;;;;5033346;28;20052;-59
2022/03/21 05:03:25;;;;;;;87.88;33.60;;;-0.30;99.90;;;;;;5033840;28;20042;-58
2022/03/21 05:05:53;;;;;;;80.68;32.40;;;-0.40;99.90;;;;;;5034208;28;20052;-58
2022/03/21 05:08:24;;;;;;;82.68;32.75;;;-0.30;99.90;;;;;;5025107;28;20049;-58
2022/03/21 05:10:52;;;;;;;75.60;30.88;;;-0.30;99.90;;;;;;5033670;28;20033;-59
2022/03/21 05:13:20;;;;;;;69.55;30.33;;;-0.30;99.90;;;;;;5033964;28;20128;-59
2022/03/21 05:15:48;;;;;;;78.43;32.72;;;-0.40;99.90;;;;;;5034279;28;20042;-59
2022/03/21 05:18:16;;;;;;;77.47;30.15;;;-0.40;99.90;;;;;;5017232;28;20053;-58
2022/03/21 05:20:44;;;;;;;72.45;30.60;;;-0.40;99.90;;;;;;5034085;28;20052;-59
2022/03/21 05:31:31;;;;;;;77.20;30.42;;;-0.50;99.90;;;;;;5033665;28;20040;-59
2022/03/21 05:36:47;;;;;;;83.78;31.45;;;-0.50;99.90;;;;;;5028807;28;20065;-58
2022/03/21 05:39:14;;;;;;;67.78;29.25;;;-0.50;99.90;;;;;;5014368;28;20057;-58
2022/03/21 05:41:42;;;;;;;73.40;30.88;;;-0.50;99.90;;;;;;5026194;28;20037;-58
2022/03/21 05:44:11;;;;;;;75.25;32.58;;;-0.60;99.90;;;;;;5034027;28;20412;-58
2022/03/21 05:46:39;;;;;;;85.35;33.47;;;-0.50;99.90;;;;;;5033471;28;20059;-59
2022/03/21 05:49:12;;;;;;;72.15;32.08;;;-0.60;99.90;;;;;;5015015;28;20041;-60
2022/03/21 05:51:43;;;;;;;79.32;32.92;;;-0.60;99.90;;;;;;5029879;28;20405;-58
2022/03/21 05:54:13;;;;;;;75.95;32.13;;;-0.60;99.90;;;;;;5029973;28;20045;-58
2022/03/21 05:56:43;;;;;;;80.45;31.95;;;-0.60;99.90;;;;;;5029038;28;20397;-59
2022/03/21 06:01:57;;;;;;;73.60;28.58;;;-0.60;99.90;;;;;;5024337;28;20049;-60
2022/03/21 06:04:25;;;;;;;70.10;30.00;;;-0.60;99.90;;;;;;5020135;28;20045;-60
2022/03/21 06:07:00;;;;;;;67.78;28.30;;;-0.60;99.90;;;;;;5024816;28;20535;-59
2022/03/21 06:09:32;;;;;;;80.63;32.38;;;-0.70;99.90;;;;;;5029683;28;20041;-59
2022/03/21 06:12:06;;;;;;;77.65;31.83;;;-0.70;99.90;;;;;;5023102;28;20034;-59
2022/03/21 06:14:37;;;;;;;72.05;31.20;;;-0.70;99.90;;;;;;5024709;28;20045;-58
2022/03/21 06:17:05;;;;;;;79.32;31.77;;;-0.70;99.90;;;;;;5020085;28;20033;-60
2022/03/21 06:19:33;;;;;;;81.07;32.55;;;-0.70;99.90;;;;;;5017997;28;20053;-60
2022/03/21 06:22:01;;;;;;;83.03;33.85;;;-0.70;99.90;;;;;;5027739;28;20513;-59
2022/03/21 06:24:29;;;;;;;80.47;31.85;;;-0.70;99.90;;;;;;5025682;28;20490;-59
2022/03/21 06:26:57;;;;;;;83.43;33.15;;;-0.70;99.90;;;;;;5003354;28;20052;-59
2022/03/21 06:29:25;;;;;;;83.63;33.90;;;-0.70;99.90;;;;;;5029025;28;20049;-57
2022/03/21 06:31:52;;;;;;;92.90;34.13;;;-0.70;99.90;;;;;;5025771;28;20052;-59
2022/03/21 06:34:20;;;;;;;92.53;31.70;;;-0.70;99.90;;;;;;5026058;28;20045;-59
2022/03/21 06:36:49;;;;;;;77.20;32.70;;;-0.70;99.90;;;;;;5026657;28;20037;-58
2022/03/21 06:39:18;;;;;;;83.03;33.15;;;-0.60;99.90;;;;;;5028922;28;20052;-59
2022/03/21 06:41:46;;;;;;;87.07;34.90;;;-0.60;99.90;;;;;;5019735;28;20050;-58
2022/03/21 06:44:14;;;;;;;83.63;34.25;;;-0.60;99.90;;;;;;5025883;28;20072;-61
2022/03/21 06:46:42;;;;;;;76.32;33.30;;;-0.60;99.90;;;;;;5022567;28;20045;-59
2022/03/21 06:49:10;;;;;;;88.45;34.20;;;-0.60;99.90;;;;;;5010873;28;20054;-59
2022/03/21 06:51:41;;;;;;;94.53;34.88;;;-0.50;99.90;;;;;;5028947;28;20045;-59
2022/03/21 06:54:12;;;;;;;87.80;35.72;;;-0.50;99.90;;;;;;5028462;28;20048;-60
2022/03/21 06:56:40;;;;;;;79.00;33.63;;;-0.50;99.90;;;;;;5008478;28;20049;-59
2022/03/21 06:59:12;;;;;;;91.63;33.97;;;-0.40;99.90;;;;;;5024906;28;20052;-59
2022/03/21 07:01:43;;;;;;;91.35;36.67;;;-0.40;99.90;;;;;;5007041;28;20333;-59
2022/03/21 07:04:14;;;;;;;90.40;36.83;;;-0.40;99.90;;;;;;5024425;28;20041;-60
2022/03/21 07:06:46;;;;;;;92.88;36.53;;;-0.30;99.90;;;;;;5027229;28;20046;-60
2022/03/21 07:09:20;;;;;;;96.63;34.70;;;-0.20;99.90;;;;;;5028385;28;20053;-58
2022/03/21 07:11:48;;;;;;;88.05;35.10;;;-0.20;99.90;;;;;;5024016;28;20041;-59
2022/03/21 07:14:20;;;;;;;103.22;38.05;;;-0.10;99.90;;;;;;5028680;28;20053;-59
2022/03/21 07:16:48;;;;;;;93.35;38.40;;;-0.10;99.90;;;;;;5026178;28;20045;-59
2022/03/21 07:19:17;;;;;;;103.53;38.15;;;0.00;99.90;;;;;;5025567;28;20049;-58
2022/03/21 07:21:44;;;;;;;91.55;37.20;;;0.00;99.90;;;;;;5025378;28;20064;-60
2022/03/21 07:24:15;;;;;;;91.55;38.90;;;0.10;99.90;;;;;;5024628;28;20057;-59
2022/03/21 07:26:43;;;;;;;104.50;40.22;;;0.20;99.90;;;;;;5025488;28;20064;-59
2022/03/21 07:29:12;;;;;;;106.68;41.75;;;0.30;99.90;;;;;;5028131;28;20046;-60
2022/03/21 07:31:40;;;;;;;99.82;39.83;;;0.40;99.90;;;;;;5028696;28;20045;-59
2022/03/21 07:34:08;;;;;;;107.53;42.25;;;0.40;99.90;;;;;;5010683;28;20428;-59
2022/03/21 07:36:35;;;;;;;117.45;42.47;;;0.50;99.90;;;;;;5010822;28;20046;-60
2022/03/21 07:39:04;;;;;;;106.45;40.30;;;0.70;99.90;;;;;;5009535;28;20040;-60
2022/03/21 07:41:33;;;;;;;123.88;44.60;;;0.80;99.90;;;;;;5027603;28;20041;-59
2022/03/21 07:44:06;;;;;;;111.05;44.50;;;0.90;99.90;;;;;;5025889;28;20061;-59
2022/03/21 07:49:20;;;;;;;110.85;44.65;;;1.10;99.90;;;;;;5025276;28;20052;-60
2022/03/21 07:51:48;;;;;;;120.72;45.42;;;1.30;99.90;;;;;;5009139;28;20041;-59
2022/03/21 07:54:16;;;;;;;131.27;48.53;;;1.40;99.90;;;;;;5007682;28;20367;-59
2022/03/21 07:56:45;;;;;;;121.57;47.53;;;1.50;99.90;;;;;;5016882;28;20041;-59
2022/03/21 07:59:12;;;;;;;135.63;47.53;;;1.70;99.90;;;;;;5005116;28;20045;-59
2022/03/21 08:01:45;;;;;;;116.03;45.47;;;1.80;99.90;;;;;;5015751;28;20516;-60
2022/03/21 08:04:14;;;;;;;115.00;46.65;;;2.00;99.90;;;;;;5001866;28;20030;-59
2022/03/21 08:06:47;;;;;;;111.30;46.17;;;2.20;99.90;;;;;;5008267;28;20500;-60
2022/03/21 08:09:16;;;;;;;113.20;44.65;;;2.30;99.90;;;;;;4982057;28;20504;-59
2022/03/21 08:11:46;;;;;;;99.13;44.30;;;2.40;99.90;;;;;;5017701;28;20053;-59
2022/03/21 08:14:17;;;;;;;111.57;42.85;;;2.60;99.90;;;;;;5026451;28;20053;-60
2022/03/21 08:16:48;;;;;;;103.75;41.10;;;2.70;99.90;;;;;;5027670;28;20045;-60
2022/03/21 08:19:19;;;;;;;109.03;41.28;;;2.80;99.90;;;;;;5027324;28;20053;-60
2022/03/21 08:21:47;;;;;;;95.10;41.88;;;2.90;99.90;;;;;;5019380;28;20050;-61
2022/03/21 08:24:15;;;;;;;89.35;39.67;;;3.00;99.90;;;;;;5008367;28;20046;-59
2022/03/21 08:26:49;;;;;;;96.45;40.58;;;3.20;99.90;;;;;;5019588;28;20054;-60
2022/03/21 08:29:17;;;;;;;90.75;38.58;;;3.30;99.90;;;;;;5017311;28;20501;-59
2022/03/21 08:31:45;;;;;;;76.28;35.85;;;3.40;99.90;;;;;;5020031;28;20038;-59
2022/03/21 08:34:13;;;;;;;83.43;36.15;;;3.50;99.90;;;;;;5021081;28;20401;-58
2022/03/21 08:36:41;;;;;;;80.43;36.58;;;3.60;99.90;;;;;;5012056;28;20042;-59
2022/03/21 08:39:11;;;;;;;77.43;34.80;;;3.70;99.90;;;;;;5023946;28;20099;-59
2022/03/21 08:41:43;;;;;;;74.78;35.50;;;3.80;99.90;;;;;;5011216;28;20038;-60
2022/03/21 08:44:11;;;;;;;72.70;35.00;;;4.00;99.90;;;;;;5010356;28;20505;-60
2022/03/21 08:46:39;;;;;;;72.82;33.10;;;4.10;99.90;;;;;;5027787;28;20057;-59
2022/03/21 08:49:26;;;;;;;76.85;34.25;;;4.10;99.90;;;;;;5027873;28;20048;-60
2022/03/21 08:52:01;;;;;;;76.70;34.13;;;4.20;99.90;;;;;;5023582;28;20524;-60
2022/03/21 08:54:29;;;;;;;81.70;34.50;;;4.30;99.90;;;;;;5009994;28;20044;-60
2022/03/21 08:56:58;;;;;;;70.05;32.10;;;4.30;99.90;;;;;;5027614;28;20045;-60
2022/03/21 08:59:26;;;;;;;74.07;33.10;;;4.50;99.90;;;;;;5027328;28;20405;-59
2022/03/21 09:01:53;;;;;;;64.60;31.13;;;4.60;99.90;;;;;;5013694;28;20294;-59
2022/03/21 09:04:22;;;;;;;67.03;31.10;;;4.80;99.90;;;;;;5031400;28;20474;-58
2022/03/21 09:06:50;;;;;;;67.07;29.65;;;5.00;99.90;;;;;;5010026;28;20053;-59
2022/03/21 09:09:18;;;;;;;60.28;28.60;;;5.20;99.90;;;;;;5026844;28;20064;-60
2022/03/21 09:11:49;;;;;;;56.35;27.98;;;5.30;99.90;;;;;;5028733;28;20045;-60
2022/03/21 09:14:16;;;;;;;51.83;27.70;;;5.60;99.90;;;;;;5025996;28;20618;-59
2022/03/21 09:16:44;;;;;;;49.28;25.08;;;5.80;99.90;;;;;;5024519;28;20416;-59
2022/03/21 09:19:13;;;;;;;54.92;24.58;;;6.00;99.90;;;;;;5013349;28;20042;-59
2022/03/21 09:21:41;;;;;;;51.60;24.60;;;6.20;99.90;;;;;;5029185;28;20405;-59
2022/03/21 09:24:10;;;;;;;47.95;22.77;;;6.30;99.90;;;;;;5006698;28;20054;-59
2022/03/21 09:26:38;;;;;;;48.92;22.20;;;6.50;99.90;;;;;;5012411;28;20045;-59
2022/03/21 09:29:10;;;;;;;44.00;22.73;;;6.60;99.90;;;;;;5030634;28;20054;-59
2022/03/21 09:31:41;;;;;;;46.95;23.52;;;6.70;99.90;;;;;;5030676;28;20045;-59
2022/03/21 09:34:11;;;;;;;45.03;21.88;;;6.80;99.90;;;;;;5030775;28;20042;-59
2022/03/21 09:36:39;;;;;;;49.80;22.77;;;6.90;99.90;;;;;;5013326;28;20052;-59
2022/03/21 09:39:08;;;;;;;45.75;21.98;;;7.00;99.90;;;;;;5026124;28;20049;-59
2022/03/21 09:41:36;;;;;;;43.22;22.05;;;7.10;99.90;;;;;;5029858;28;20054;-59
2022/03/21 09:44:10;;;;;;;41.75;20.58;;;7.20;99.90;;;;;;5030697;28;20042;-58
2022/03/21 09:46:40;;;;;;;36.55;19.58;;;7.30;99.90;;;;;;5012952;28;20037;-58
2022/03/21 09:49:10;;;;;;;;;;;7.40;99.90;;;;;;5012895;28;20049;-58
2022/03/21 09:51:39;;;;;;;50.58;21.55;;;7.50;99.90;;;;;;5012646;28;19928;-58
2022/03/21 09:54:09;;;;;;;36.83;19.85;;;7.50;99.90;;;;;;5025462;28;20064;-60
2022/03/21 09:56:37;;;;;;;33.88;19.60;;;7.60;99.90;;;;;;5030035;28;20041;-59
2022/03/21 09:59:05;;;;;;;37.88;19.20;;;7.70;99.90;;;;;;5030280;28;20053;-57
2022/03/21 10:01:34;;;;;;;40.03;18.33;;;7.70;99.90;;;;;;5030347;28;20616;-58
2022/03/21 10:04:02;;;;;;;38.00;18.80;;;7.80;99.90;;;;;;5029889;28;20412;-58
2022/03/21 10:06:30;;;;;;;37.00;17.75;;;7.80;99.90;;;;;;5029587;28;20054;-58
2022/03/21 10:09:11;;;;;;;34.20;18.23;;;7.80;99.90;;;;;;5014395;28;20057;-58
2022/03/21 10:11:48;;;;;;;34.15;16.13;;;7.80;99.90;;;;;;5011188;28;20049;-57
2022/03/21 10:14:26;;;;;;;34.47;17.05;;;7.90;99.90;;;;;;4992830;28;20050;-58
2022/03/21 10:16:57;;;;;;;32.60;16.40;;;7.90;99.90;;;;;;5010258;28;20046;-57
2022/03/21 10:19:26;;;;;;;32.13;16.60;;;8.10;99.90;;;;;;5027840;28;20046;-58
2022/03/21 10:22:02;;;;;;;32.08;16.65;;;8.20;99.90;;;;;;5029011;28;20041;-58
2022/03/21 10:24:38;;;;;;;32.58;17.17;;;8.30;99.90;;;;;;5010122;28;20045;-58
2022/03/21 10:27:06;;;;;;;30.80;15.05;;;8.40;99.90;;;;;;5025271;28;20041;-58
2022/03/21 10:29:50;;;;;;;34.15;16.73;;;8.40;99.90;;;;;;5029537;28;20058;-57
2022/03/21 10:32:39;;;;;;;31.83;15.20;;;8.50;99.90;;;;;;5029493;28;20041;-57
2022/03/21 10:35:12;;;;;;;35.25;15.35;;;8.50;99.70;;;;;;5009813;28;20050;-58
2022/03/21 10:37:44;;;;;;;42.97;16.20;;;8.60;99.90;;;;;;5028626;28;20037;-59
2022/03/21 10:40:31;;;;;;;30.08;15.32;;;8.60;99.90;;;;;;5002908;28;20050;-57
2022/03/21 10:43:01;;;;;;;25.73;14.95;;;8.70;99.90;;;;;;5029347;28;20045;-57
2022/03/21 10:45:35;;;;;;;28.35;15.05;;;8.70;99.90;;;;;;5029281;28;20045;-57
2022/03/21 10:48:08;;;;;;;32.33;14.90;;;8.70;99.90;;;;;;5022771;28;20042;-58
2022/03/21 10:50:40;;;;;;;31.85;15.07;;;8.70;99.90;;;;;;5009570;28;20057;-58
2022/03/21 10:53:19;;;;;;;29.33;15.30;;;8.80;99.60;;;;;;5019058;28;20046;-57
2022/03/21 10:55:59;;;;;;;32.35;14.77;;;8.80;99.90;;;;;;5029522;28;20049;-57
2022/03/21 10:58:45;;;;;;;28.02;15.15;;;8.80;98.20;;;;;;5029200;28;20045;-57
2022/03/21 11:01:13;;;;;;;29.13;14.38;;;8.80;97.70;;;;;;5011750;28;20049;-57
2022/03/21 11:03:43;;;;;;;30.70;13.45;;;8.80;97.60;;;;;;5016323;28;20069;-57
2022/03/21 11:06:12;;;;;;;25.25;14.00;;;8.90;97.10;;;;;;5007829;28;20050;-57
2022/03/21 11:08:40;;;;;;;27.17;14.07;;;8.90;94.20;;;;;;5016493;28;20045;-57
2022/03/21 11:11:09;;;;;;;28.33;12.98;;;9.00;94.70;;;;;;5011204;28;20049;-58
2022/03/21 11:13:38;;;;;;;24.40;12.98;;;9.10;96.30;;;;;;5022742;28;20045;-57
2022/03/21 11:16:07;;;;;;;28.30;12.70;;;9.20;93.50;;;;;;5026150;28;20497;-57
2022/03/21 11:18:35;;;;;;;24.77;12.85;;;9.40;92.60;;;;;;5016439;28;20490;-58
2022/03/21 11:21:11;;;;;;;26.88;13.50;;;9.50;92.40;;;;;;5008145;28;20038;-58
2022/03/21 11:23:40;;;;;;;28.15;12.02;;;9.70;91.10;;;;;;5019361;28;20049;-58
2022/03/21 11:26:22;;;;;;;25.63;13.88;;;9.90;91.40;;;;;;5024741;28;20052;-59
2022/03/21 11:28:53;;;;;;;24.35;12.07;;;10.10;90.60;;;;;;5019324;28;20041;-58
2022/03/21 11:31:43;;;;;;;23.92;12.43;;;10.30;90.50;;;;;;5009086;28;20401;-58
2022/03/21 11:34:26;;;;;;;26.55;13.07;;;10.60;85.70;;;;;;5014666;28;20042;-59
2022/03/21 11:36:56;;;;;;;26.10;12.70;;;10.80;83.60;;;;;;5008907;28;20061;-58
2022/03/21 11:39:25;;;;;;;25.23;11.82;;;11.00;80.80;;;;;;5025169;28;20048;-58
2022/03/21 11:41:57;;;;;;;25.87;14.80;;;11.10;78.60;;;;;;5023376;28;20401;-57
2022/03/21 11:44:26;;;;;;;29.10;13.80;;;11.00;76.70;;;;;;5008375;28;20049;-58
2022/03/21 11:46:53;;;;;;;33.30;14.98;;;11.00;78.10;;;;;;5011831;28;20069;-58
2022/03/21 11:49:21;;;;;;;26.98;12.98;;;11.00;78.90;;;;;;4995101;28;20053;-58
2022/03/21 11:51:56;;;;;;;24.77;13.80;;;10.90;78.90;;;;;;5009806;28;20045;-58
2022/03/21 11:54:27;;;;;;;31.00;14.75;;;10.90;78.70;;;;;;5028100;28;20057;-58
2022/03/21 11:56:59;;;;;;;33.85;15.07;;;10.90;77.50;;;;;;5026728;28;20052;-58
2022/03/21 11:59:35;;;;;;;28.92;13.70;;;10.80;79.50;;;;;;5013250;28;20042;-59
2022/03/21 12:02:13;;;;;;;30.83;14.75;;;10.80;81.60;;;;;;5006967;28;20505;-58
2022/03/21 12:04:54;;;;;;;30.63;16.40;;;10.80;81.20;;;;;;5015127;28;20478;-58
2022/03/21 12:07:25;;;;;;;30.92;15.15;;;10.80;80.60;;;;;;5010215;28;20049;-59
2022/03/21 12:09:54;;;;;;;30.77;14.65;;;10.80;81.10;;;;;;5013794;28;20046;-59
2022/03/21 12:12:23;;;;;;;33.30;16.23;;;10.70;81.10;;;;;;5011394;28;20037;-59
2022/03/21 12:14:54;;;;;;;30.48;15.77;;;10.60;82.30;;;;;;5028149;28;20046;-58
2022/03/21 12:17:22;;;;;;;32.28;16.52;;;10.50;83.00;;;;;;5028136;28;20057;-58
2022/03/21 12:20:01;;;;;;;31.15;16.02;;;10.50;85.70;;;;;;5013422;28;20041;-58
2022/03/21 12:22:49;;;;;;;29.35;15.88;;;10.50;88.90;;;;;;5017645;28;20524;-58
2022/03/21 12:25:27;;;;;;;33.35;16.15;;;10.50;88.10;;;;;;5027863;28;20469;-59
2022/03/21 12:28:18;;;;;;;33.50;16.00;;;10.60;89.50;;;;;;5018465;28;20046;-58
2022/03/21 12:30:48;;;;;;;33.05;16.70;;;10.70;90.30;;;;;;5028184;28;20428;-57
2022/03/21 12:33:16;;;;;;;35.92;17.33;;;10.70;90.90;;;;;;5027139;28;20511;-57
2022/03/21 12:35:45;;;;;;;29.13;15.68;;;10.80;91.40;;;;;;5009116;28;20048;-58
2022/03/21 12:38:20;;;;;;;30.55;16.38;;;10.80;90.40;;;;;;5019222;28;20041;-58
2022/03/21 12:40:50;;;;;;;31.25;17.67;;;10.80;90.40;;;;;;5030357;28;20049;-57
2022/03/21 12:43:24;;;;;;;28.77;16.90;;;10.80;90.30;;;;;;5022759;28;20060;-57
2022/03/21 12:46:07;;;;;;;33.47;16.80;;;10.80;90.00;;;;;;5029696;28;20049;-58
2022/03/21 12:48:45;;;;;;;33.58;16.15;;;10.70;90.70;;;;;;5020710;28;20042;-58
2022/03/21 12:51:24;;;;;;;31.45;16.38;;;10.70;91.20;;;;;;5020596;28;20061;-58
2022/03/21 12:54:11;;;;;;;30.15;16.88;;;10.70;90.90;;;;;;5031339;28;20057;-57
2022/03/21 12:56:40;;;;;;;33.83;17.20;;;10.60;90.80;;;;;;5031428;28;20397;-58
2022/03/21 12:59:07;;;;;;;41.92;18.45;;;10.60;91.70;;;;;;5028116;28;20053;-58
2022/03/21 13:01:43;;;;;;;32.10;16.13;;;10.60;92.70;;;;;;5011705;28;20049;-58
2022/03/21 13:12:41;;;;;;;30.30;16.13;;;10.80;93.50;;;;;;5009079;28;20057;-58
2022/03/21 13:15:11;;;;;;;31.55;17.00;;;10.90;92.50;;;;;;5008929;28;20034;-58
2022/03/21 13:17:57;;;;;;;32.65;15.95;;;11.00;93.20;;;;;;5026529;28;20064;-58